Time;durP1;ratioP1;P1;durP2;ratioP2;P2;SDS_P1;SDS_P2;PMS_P1;PMS_P2;Temp;Humidity;BMP_temperature;BMP_pressure;BME280_temperature;BME280_humidity;BME280_pressure;Samples;Min_cycle;Max_cycle;Signal;HPM_P1;HPM_P2
2023/01/26 00:01:23;;;;;;;0.10;0.10;;;;;;;2.70;72.65;102613.03;5090291;28;20090;-81
2023/01/26 00:03:50;;;;;;;3.45;2.05;;;;;;;2.65;72.88;102625.94;5085710;28;20082;-79
2023/01/26 00:06:18;;;;;;;0.73;0.73;;;;;;;2.63;72.84;102625.00;5091992;28;20115;-80
2023/01/26 00:08:46;;;;;;;0.28;0.28;;;;;;;2.64;72.86;102624.16;5094521;28;20035;-79
2023/01/26 00:11:15;;;;;;;1.05;1.05;;;;;;;2.69;72.73;102621.72;5084403;28;20085;-81
2023/01/26 00:13:42;;;;;;;0.20;0.20;;;;;;;2.68;72.75;102619.91;5088289;28;20051;-80
2023/01/26 00:16:10;;;;;;;0.13;0.13;;;;;;;2.71;72.94;102620.06;5083371;28;20035;-80
2023/01/26 00:18:38;;;;;;;8.30;3.70;;;;;;;2.71;73.06;102614.84;5087131;28;20020;-81
2023/01/26 00:21:07;;;;;;;0.55;0.38;;;;;;;2.77;72.40;102619.41;5085111;28;20031;-81
2023/01/26 00:23:34;;;;;;;0.10;0.10;;;;;;;2.77;72.59;102619.41;5093843;28;20582;-80
2023/01/26 00:26:01;;;;;;;1.65;1.52;;;;;;;2.77;72.47;102615.09;5082664;28;20047;-79
2023/01/26 00:28:28;;;;;;;0.10;0.10;;;;;;;2.77;72.56;102611.56;5092540;28;20039;-81
2023/01/26 00:31:00;;;;;;;1.30;1.20;;;;;;;2.77;72.42;102615.09;5077797;28;20495;-80
2023/01/26 00:33:27;;;;;;;0.70;0.70;;;;;;;2.77;72.50;102612.47;5086511;28;20415;-80
2023/01/26 00:35:54;;;;;;;2.33;2.13;;;;;;;2.79;72.77;102613.44;5085353;28;20028;-80
2023/01/26 00:38:20;;;;;;;0.20;0.20;;;;;;;2.77;72.54;102604.63;5082682;28;20028;-80
2023/01/26 00:40:46;;;;;;;2.50;2.40;;;;;;;2.77;72.73;102599.38;5087163;28;20244;-79
2023/01/26 00:43:12;;;;;;;0.63;0.63;;;;;;;2.76;72.28;102602.81;5086647;28;20406;-81
2023/01/26 00:45:39;;;;;;;0.30;0.30;;;;;;;2.79;72.59;102602.97;5092213;28;20531;-81
2023/01/26 00:48:05;;;;;;;0.85;0.85;;;;;;;2.81;72.30;102603.00;5085165;28;20033;-80
2023/01/26 00:50:32;;;;;;;9.40;2.40;;;;;;;2.81;72.44;102601.28;5095079;28;20049;-81
2023/01/26 00:52:58;;;;;;;0.40;0.40;;;;;;;2.85;72.25;102592.69;5108338;28;20022;-81
2023/01/26 00:55:31;;;;;;;0.95;0.63;;;;;;;2.88;72.45;102594.59;5108425;28;20024;-79
2023/01/26 00:57:59;;;;;;;0.25;0.25;;;;;;;2.84;72.56;102588.31;5081190;28;20031;-80
2023/01/26 01:00:26;;;;;;;0.30;0.30;;;;;;;2.83;72.36;102591.78;5083455;28;20032;-80
2023/01/26 01:02:52;;;;;;;0.20;0.20;;;;;;;2.82;72.43;102587.38;5078046;28;20028;-80
2023/01/26 01:05:18;;;;;;;3.33;2.85;;;;;;;2.82;72.59;102587.38;5083253;28;20020;-80
2023/01/26 01:07:45;;;;;;;0.47;0.47;;;;;;;2.82;72.35;102576.88;5088733;28;20066;-79
2023/01/26 01:10:11;;;;;;;0.15;0.15;;;;;;;2.79;72.28;102579.41;5087056;28;20032;-79
2023/01/26 01:12:38;;;;;;;0.30;0.30;;;;;;;2.80;72.53;102578.53;5096086;28;20445;-79
2023/01/26 01:15:04;;;;;;;11.30;2.28;;;;;;;2.79;72.68;102575.88;5095800;28;20024;-81
2023/01/26 01:17:31;;;;;;;1.02;0.90;;;;;;;2.77;72.37;102569.66;5088228;28;20029;-81
2023/01/26 01:19:57;;;;;;;0.60;0.60;;;;;;;2.79;72.38;102579.41;5083447;28;20039;-80
2023/01/26 01:22:23;;;;;;;4.05;1.55;;;;;;;2.76;72.44;102576.66;5082846;28;20380;-80
2023/01/26 01:24:49;;;;;;;0.52;0.52;;;;;;;2.76;72.45;102571.41;5089208;28;20445;-81
2023/01/26 01:27:15;;;;;;;0.40;0.40;;;;;;;2.78;72.69;102559.28;5090837;28;20032;-81
2023/01/26 01:29:41;;;;;;;0.10;0.10;;;;;;;2.77;72.74;102562.72;5077420;28;20032;-81
2023/01/26 01:32:07;;;;;;;0.32;0.32;;;;;;;2.78;72.33;102564.53;5081889;28;20032;-80
2023/01/26 01:34:34;;;;;;;2.80;2.70;;;;;;;2.79;72.65;102560.16;5080858;28;20036;-81
2023/01/26 01:37:00;;;;;;;0.10;0.10;;;;;;;2.80;72.78;102560.22;5086174;28;20028;-80
2023/01/26 01:39:26;;;;;;;0.47;0.47;;;;;;;2.81;72.68;102568.97;5081370;28;20025;-81
2023/01/26 01:41:52;;;;;;;1.45;0.75;;;;;;;2.80;72.79;102565.44;5094423;28;20036;-81
2023/01/26 01:44:21;;;;;;;0.20;0.20;;;;;;;2.80;72.62;102557.59;5083458;28;20024;-79
2023/01/26 01:47:09;;;;;;;0.10;0.10;;;;;;;2.80;72.35;102568.06;5086989;28;20492;-81
2023/01/26 01:49:44;;;;;;;0.32;0.32;;;;;;;2.84;72.41;102566.47;5088954;28;20056;-81
2023/01/26 01:52:13;;;;;;;0.90;0.90;;;;;;;2.76;72.74;102566.19;5084160;28;20036;-80
2023/01/26 01:54:47;;;;;;;0.20;0.20;;;;;;;2.80;72.43;102565.44;5087913;28;20085;-80
2023/01/26 01:57:26;;;;;;;0.10;0.10;;;;;;;2.85;72.75;102571.75;5088799;28;20036;-80
2023/01/26 01:59:58;;;;;;;0.30;0.30;;;;;;;2.87;72.36;102570.09;5084024;28;20032;-80
2023/01/26 02:02:25;;;;;;;0.20;0.20;;;;;;;2.87;72.38;102559.63;5088435;28;20034;-80
2023/01/26 02:04:52;;;;;;;0.50;0.50;;;;;;;2.90;72.47;102561.47;5083113;28;20032;-80
2023/01/26 02:07:18;;;;;;;0.20;0.20;;;;;;;2.90;72.15;102564.09;5088037;28;20036;-81
2023/01/26 02:12:32;;;;;;;0.20;0.20;;;;;;;2.94;72.54;102566.03;5092866;28;20040;-80
2023/01/26 02:15:00;;;;;;;0.20;0.20;;;;;;;2.97;72.23;102565.25;5082666;28;20107;-78
2023/01/26 02:17:26;;;;;;;0.20;0.20;;;;;;;2.95;72.30;102559.06;5083750;28;20047;-79
2023/01/26 02:28:19;;;;;;;0.10;0.10;;;;;;;3.01;72.72;102561.91;5082075;27;20401;-82
2023/01/26 02:30:46;;;;;;;0.10;0.10;;;;;;;3.02;72.38;102564.59;5105098;27;20045;-80
2023/01/26 02:33:21;;;;;;;0.28;0.28;;;;;;;3.13;72.22;102556.22;5111269;27;20128;-80
2023/01/26 02:35:47;;;;;;;2.10;1.27;;;;;;;3.10;72.71;102557.00;5049188;28;20116;-80
2023/01/26 02:38:14;;;;;;;0.20;0.20;;;;;;;3.13;72.20;102562.38;5063634;28;20046;-81
2023/01/26 02:40:46;;;;;;;0.10;0.10;;;;;;;3.18;72.60;102562.56;5051258;28;20034;-80
2023/01/26 02:43:13;;;;;;;0.20;0.20;;;;;;;3.21;72.46;102563.56;5042796;28;20105;-81
2023/01/26 02:45:42;;;;;;;0.20;0.20;;;;;;;3.23;72.30;102561.00;5075448;28;20043;-81
2023/01/26 02:48:08;;;;;;;0.88;0.88;;;;;;;3.19;72.01;102562.63;5067923;28;20035;-81
2023/01/26 02:50:35;;;;;;;1.17;1.13;;;;;;;3.21;72.28;102565.28;5035463;28;20058;-81
2023/01/26 02:53:01;;;;;;;0.93;0.93;;;;;;;3.20;72.42;102559.19;5050678;28;20027;-81
2023/01/26 02:55:28;;;;;;;0.73;0.73;;;;;;;3.22;72.37;102561.84;5066174;28;20040;-80
2023/01/26 02:57:57;;;;;;;0.30;0.30;;;;;;;3.23;72.10;102568.88;5067979;28;20028;-81
2023/01/26 03:00:26;;;;;;;0.20;0.20;;;;;;;3.23;72.40;102569.75;5049722;28;20029;-81
2023/01/26 03:02:56;;;;;;;1.13;0.65;;;;;;;3.24;71.98;102566.31;5094822;28;20059;-81
2023/01/26 03:05:22;;;;;;;0.98;0.95;;;;;;;3.24;72.36;102570.66;5047470;28;20349;-81
2023/01/26 03:07:49;;;;;;;0.28;0.28;;;;;;;3.27;71.95;102572.50;5058401;28;20031;-81
2023/01/26 03:10:16;;;;;;;2.63;2.40;;;;;;;3.22;71.89;102567.97;5070919;28;20081;-81
2023/01/26 03:12:42;;;;;;;3.90;1.20;;;;;;;3.22;72.20;102569.69;5065945;28;20079;-81
2023/01/26 03:29:09;;;;;;;0.10;0.10;;;;;;;3.20;72.01;102564.41;5010253;28;20117;-81
2023/01/26 03:31:35;;;;;;;0.35;0.35;;;;;;;3.19;72.43;102557.38;5020552;28;20031;-81
2023/01/26 03:34:01;;;;;;;0.10;0.10;;;;;;;3.19;72.51;102567.84;5014572;28;20027;-80
2023/01/26 03:36:27;;;;;;;0.30;0.30;;;;;;;3.22;72.27;102560.09;5033682;28;20114;-82
2023/01/26 03:38:53;;;;;;;0.20;0.20;;;;;;;3.23;72.20;102559.28;5020139;28;20481;-81
2023/01/26 03:57:55;;;;;;;0.85;0.85;;;;;;;3.36;72.16;102560.63;5020848;28;20125;-80
2023/01/26 04:00:22;;;;;;;5.60;1.20;;;;;;;3.34;72.05;102556.16;5020656;28;20041;-81
2023/01/26 04:08:25;;;;;;;1.95;1.75;;;;;;;3.38;72.50;102568.56;5029662;28;20480;-81
2023/01/26 04:10:53;;;;;;;0.20;0.20;;;;;;;3.39;72.33;102560.75;5024081;28;20366;-79
2023/01/26 04:21:41;;;;;;;0.10;0.10;;;;;;;3.50;72.46;102570.72;5050104;28;20038;-80
2023/01/26 04:24:12;;;;;;;0.10;0.10;;;;;;;3.50;72.02;102563.78;5053332;28;20038;-80
2023/01/26 04:26:39;;;;;;;1.27;1.15;;;;;;;3.52;72.31;102572.56;5046799;28;20110;-81
2023/01/26 04:29:08;;;;;;;0.20;0.20;;;;;;;3.52;72.06;102562.09;5074455;28;20054;-80
2023/01/26 04:31:35;;;;;;;0.20;0.20;;;;;;;3.54;72.01;102565.66;5075248;28;20030;-80
2023/01/26 04:34:02;;;;;;;0.88;0.88;;;;;;;3.56;72.12;102560.47;5052597;28;20106;-81
2023/01/26 04:36:29;;;;;;;0.17;0.17;;;;;;;3.58;72.35;102566.66;5051397;28;20114;-80
2023/01/26 04:38:56;;;;;;;0.70;0.45;;;;;;;3.58;72.06;102569.28;5029702;28;20026;-81
2023/01/26 04:41:22;;;;;;;0.75;0.75;;;;;;;3.61;72.10;102565.88;5064844;28;20034;-82
2023/01/26 04:43:48;;;;;;;2.85;2.67;;;;;;;3.61;72.35;102560.66;5058829;28;20059;-80
2023/01/26 04:46:15;;;;;;;0.30;0.30;;;;;;;3.60;72.22;102565.00;5028669;28;20034;-81
2023/01/26 04:48:41;;;;;;;0.73;0.73;;;;;;;3.62;72.23;102563.31;5060461;28;20091;-79
2023/01/26 04:51:18;;;;;;;0.30;0.30;;;;;;;3.66;72.38;102569.56;5061087;28;20245;-81
2023/01/26 04:53:45;;;;;;;0.20;0.20;;;;;;;3.61;72.15;102560.66;5011347;28;20031;-80
2023/01/26 04:56:29;;;;;;;0.20;0.20;;;;;;;3.70;71.92;102551.41;5048721;28;20055;-80
2023/01/26 04:58:57;;;;;;;0.20;0.20;;;;;;;3.65;72.55;102547.72;5010061;28;20030;-81
2023/01/26 05:01:23;;;;;;;0.15;0.15;;;;;;;3.69;72.18;102548.72;5083858;28;20073;-81
2023/01/26 05:03:49;;;;;;;0.15;0.15;;;;;;;3.70;72.55;102546.16;5024874;28;20492;-80
2023/01/26 05:06:15;;;;;;;1.17;0.80;;;;;;;3.71;72.42;102547.94;5033323;28;20106;-80
2023/01/26 05:08:42;;;;;;;0.10;0.10;;;;;;;3.73;72.53;102553.22;5045599;28;20026;-80
2023/01/26 05:11:08;;;;;;;0.20;0.20;;;;;;;3.73;72.58;102550.59;5046160;28;20041;-80
2023/01/26 05:13:35;;;;;;;0.20;0.20;;;;;;;3.75;72.18;102554.19;5054345;28;20553;-82
2023/01/26 05:16:02;;;;;;;0.20;0.20;;;;;;;3.75;72.39;102559.44;5020771;28;20075;-81
2023/01/26 05:18:29;;;;;;;0.20;0.20;;;;;;;3.79;72.46;102561.31;5057522;28;20095;-81
2023/01/26 05:20:56;;;;;;;0.68;0.68;;;;;;;3.80;72.41;102557.84;5065909;28;20042;-81
2023/01/26 05:23:22;;;;;;;0.30;0.30;;;;;;;3.83;72.63;102555.34;5003509;28;20035;-81
2023/01/26 05:25:49;;;;;;;0.17;0.17;;;;;;;3.83;72.29;102551.84;4994055;28;20045;-80
2023/01/26 05:28:15;;;;;;;1.08;1.08;;;;;;;3.84;72.26;102557.13;5033719;28;20278;-81
2023/01/26 05:30:41;;;;;;;0.82;0.82;;;;;;;3.86;72.20;102557.16;5033396;28;20055;-82
2023/01/26 05:33:09;;;;;;;0.10;0.10;;;;;;;3.88;72.57;102556.38;5003656;28;20038;-82
2023/01/26 05:35:35;;;;;;;0.10;0.10;;;;;;;3.84;72.83;102557.13;5045304;28;20082;-82
2023/01/26 05:38:01;;;;;;;0.17;0.17;;;;;;;3.94;72.29;102557.44;5029892;28;20048;-83
2023/01/26 05:40:27;;;;;;;0.10;0.10;;;;;;;3.92;72.73;102562.63;5034275;28;20062;-81
2023/01/26 05:42:54;;;;;;;0.20;0.20;;;;;;;3.98;72.59;102557.59;5056873;28;20477;-79
2023/01/26 05:45:20;;;;;;;0.25;0.25;;;;;;;3.98;72.59;102559.34;5045430;28;20026;-80
2023/01/26 05:47:48;;;;;;;0.10;0.10;;;;;;;3.97;72.71;102565.44;5044016;28;20016;-81
2023/01/26 05:50:15;;;;;;;0.20;0.20;;;;;;;4.07;72.25;102567.53;5052092;28;20478;-82
2023/01/26 05:52:43;;;;;;;0.10;0.10;;;;;;;3.98;72.75;102562.84;5063660;28;20065;-83
2023/01/26 05:55:09;;;;;;;0.20;0.20;;;;;;;4.07;72.59;102567.53;5046901;28;20033;-83
2023/01/26 05:57:35;;;;;;;0.20;0.20;;;;;;;4.10;72.35;102571.97;5033962;28;20478;-81
2023/01/26 06:00:03;;;;;;;0.55;0.55;;;;;;;4.12;72.36;102563.31;5074646;28;20099;-82
2023/01/26 06:02:29;;;;;;;0.10;0.10;;;;;;;4.15;72.29;102575.66;5046363;28;20041;-81
2023/01/26 06:04:55;;;;;;;0.20;0.20;;;;;;;4.13;72.38;102572.97;5051501;28;20132;-80
2023/01/26 06:07:21;;;;;;;0.10;0.10;;;;;;;4.16;72.42;102566.94;5050800;28;20024;-81
2023/01/26 06:09:47;;;;;;;0.20;0.20;;;;;;;4.18;72.45;102568.78;5064143;28;20097;-80
2023/01/26 06:12:16;;;;;;;0.10;0.10;;;;;;;4.21;72.49;102566.28;5017816;28;20045;-81
2023/01/26 06:14:42;;;;;;;0.10;0.10;;;;;;;4.25;72.06;102561.13;5027511;28;21106;-81
2023/01/26 06:17:09;;;;;;;2.20;1.85;;;;;;;4.27;72.52;102556.81;5000809;28;20041;-81
2023/01/26 06:19:36;;;;;;;0.20;0.20;;;;;;;4.28;72.53;102571.72;5022060;28;20034;-81
2023/01/26 06:22:03;;;;;;;1.05;1.05;;;;;;;4.31;72.61;102571.81;5016659;28;20062;-81
2023/01/26 06:24:29;;;;;;;0.15;0.15;;;;;;;4.30;72.26;102575.28;5023226;28;20026;-81
2023/01/26 06:26:55;;;;;;;0.20;0.20;;;;;;;4.32;72.47;102571.88;5025531;28;20024;-79
2023/01/26 06:29:21;;;;;;;0.20;0.20;;;;;;;4.34;72.47;102569.31;5042817;28;20037;-79
2023/01/26 06:31:47;;;;;;;0.77;0.77;;;;;;;4.35;72.29;102568.47;5042566;28;20031;-80
2023/01/26 06:34:14;;;;;;;0.20;0.20;;;;;;;4.36;72.33;102568.53;5033909;28;20487;-83
2023/01/26 06:36:40;;;;;;;0.32;0.32;;;;;;;4.37;72.56;102582.53;5051984;28;20099;-82
2023/01/26 06:39:09;;;;;;;0.52;0.52;;;;;;;4.36;72.28;102581.66;5043527;28;20163;-83
2023/01/26 06:41:35;;;;;;;0.63;0.63;;;;;;;4.38;72.48;102574.69;5015535;28;20049;-80
2023/01/26 06:44:01;;;;;;;0.25;0.25;;;;;;;4.40;72.18;102580.03;4997277;28;20034;-80
2023/01/26 06:46:27;;;;;;;0.20;0.20;;;;;;;4.40;72.55;102582.66;5003260;28;20393;-80
2023/01/26 06:48:53;;;;;;;0.20;0.20;;;;;;;4.43;72.36;102597.59;5001584;28;20023;-81
2023/01/26 06:53:57;;;;;;;0.93;0.93;;;;;;;4.30;73.27;102596.28;5093283;27;1182542;-83
2023/01/26 06:56:26;;;;;;;0.22;0.22;;;;;;;4.46;72.56;102593.34;5106988;28;20028;-83
2023/01/26 06:58:52;;;;;;;0.82;0.82;;;;;;;4.46;73.00;102598.59;5100239;28;20020;-81
2023/01/26 07:03:55;;;;;;;0.20;0.20;;;;;;;4.49;73.12;102598.69;5102269;27;20412;-81
2023/01/26 07:06:21;;;;;;;0.50;0.50;;;;;;;4.48;72.88;102607.41;5094867;28;20094;-81
2023/01/26 07:08:47;;;;;;;0.38;0.38;;;;;;;4.50;73.12;102610.97;5089945;28;20440;-80
2023/01/26 07:11:14;;;;;;;0.30;0.30;;;;;;;4.53;73.22;102611.06;5102148;28;20031;-80
2023/01/26 07:13:43;;;;;;;0.43;0.43;;;;;;;4.56;73.11;102610.31;5083831;28;20016;-81
2023/01/26 07:16:12;;;;;;;0.10;0.10;;;;;;;4.59;73.22;102610.38;5111922;28;20067;-84
2023/01/26 07:18:38;;;;;;;0.10;0.10;;;;;;;4.58;73.16;102603.34;5106221;28;20035;-80
2023/01/26 07:21:08;;;;;;;0.20;0.20;;;;;;;4.60;73.55;102617.44;5102509;28;20036;-81
2023/01/26 07:23:34;;;;;;;1.08;1.08;;;;;;;4.65;73.61;102613.22;5095098;28;20516;-81
2023/01/26 07:26:00;;;;;;;0.32;0.32;;;;;;;4.66;73.77;102615.00;5091581;28;20032;-80
2023/01/26 07:28:29;;;;;;;0.52;0.50;;;;;;;4.69;73.78;102616.84;5074978;28;20104;-79
2023/01/26 07:30:57;;;;;;;0.40;0.40;;;;;;;4.77;73.42;102619.72;5079057;28;20035;-80
2023/01/26 07:33:23;;;;;;;0.10;0.10;;;;;;;4.80;73.36;102623.34;5088571;28;20031;-78
2023/01/26 07:35:52;;;;;;;0.57;0.57;;;;;;;4.85;73.24;102626.13;5087102;28;20403;-78
2023/01/26 07:38:18;;;;;;;0.75;0.75;;;;;;;4.89;73.39;102624.47;5090179;28;20055;-81
2023/01/26 07:40:45;;;;;;;0.20;0.20;;;;;;;4.92;73.76;102635.06;5080692;28;20074;-81
2023/01/26 07:43:11;;;;;;;0.17;0.17;;;;;;;4.95;73.92;102637.81;5096177;28;20020;-79
2023/01/26 07:45:38;;;;;;;0.68;0.68;;;;;;;4.98;74.18;102641.41;5084970;28;20482;-81
2023/01/26 07:48:04;;;;;;;0.10;0.10;;;;;;;5.00;74.33;102633.59;5090703;28;20047;-83
2023/01/26 07:50:31;;;;;;;0.10;0.10;;;;;;;5.05;74.58;102641.59;5080748;28;21331;-80
2023/01/26 07:52:59;;;;;;;2.17;1.45;;;;;;;5.07;74.80;102645.19;5090440;28;20025;-81
2023/01/26 07:55:27;;;;;;;1.65;0.68;;;;;;;5.15;74.79;102639.31;5092523;28;20556;-81
2023/01/26 07:57:54;;;;;;;0.52;0.52;;;;;;;5.15;75.18;102639.31;5083517;28;20036;-81
2023/01/26 08:00:20;;;;;;;0.10;0.10;;;;;;;5.21;74.95;102654.41;5090427;28;20033;-79
2023/01/26 08:02:49;;;;;;;0.10;0.10;;;;;;;5.36;75.02;102648.72;5083168;28;20025;-80
2023/01/26 08:05:17;;;;;;;0.10;0.10;;;;;;;5.41;75.07;102647.13;5087080;28;20511;-80
2023/01/26 08:07:43;;;;;;;0.10;0.10;;;;;;;5.49;75.46;102645.59;5089843;28;20031;-82
2023/01/26 08:10:11;;;;;;;1.10;1.10;;;;;;;5.63;75.79;102658.28;5102948;28;20074;-81
2023/01/26 08:12:37;;;;;;;0.45;0.45;;;;;;;5.72;76.24;102661.19;5104890;28;20016;-82
2023/01/26 08:15:03;;;;;;;0.20;0.20;;;;;;;5.86;75.88;102661.59;5091603;28;20032;-80
2023/01/26 08:17:32;;;;;;;0.10;0.10;;;;;;;5.97;75.68;102661.91;5086523;28;20410;-81
2023/01/26 08:19:59;;;;;;;0.10;0.10;;;;;;;6.04;75.69;102661.25;5084349;28;20032;-80
2023/01/26 08:22:25;;;;;;;1.08;0.98;;;;;;;6.05;75.99;102668.28;5092010;28;20059;-79
2023/01/26 08:24:52;;;;;;;0.20;0.20;;;;;;;6.12;76.20;102659.72;5091450;28;20036;-79
2023/01/26 08:27:18;;;;;;;0.10;0.10;;;;;;;6.17;76.27;102664.22;5069551;28;20480;-80
2023/01/26 08:29:44;;;;;;;0.20;0.20;;;;;;;6.21;76.36;102664.34;5073424;28;20036;-80
2023/01/26 08:32:10;;;;;;;0.20;0.20;;;;;;;6.28;76.14;102671.56;5068278;28;20063;-82
2023/01/26 08:34:36;;;;;;;2.17;2.08;;;;;;;6.26;76.05;102670.63;5090011;22;20055;-82
2023/01/26 08:37:02;;;;;;;0.10;0.10;;;;;;;6.29;75.46;102667.19;5073924;28;20092;-82
2023/01/26 08:39:29;;;;;;;0.10;0.10;;;;;;;6.33;75.70;102679.59;5084122;28;20043;-81
2023/01/26 08:41:55;;;;;;;0.10;0.10;;;;;;;6.29;75.76;102667.19;5093242;28;20055;-83
2023/01/26 08:44:21;;;;;;;0.10;0.10;;;;;;;6.28;75.63;102682.09;5093191;28;20032;-82
2023/01/26 08:46:47;;;;;;;0.10;0.10;;;;;;;6.23;75.37;102678.47;5091711;28;20024;-82
2023/01/26 08:49:13;;;;;;;0.10;0.10;;;;;;;6.21;75.30;102693.31;5101295;28;20039;-81
2023/01/26 08:51:40;;;;;;;0.10;0.10;;;;;;;6.13;75.55;102682.56;5121868;28;20252;-79
2023/01/26 08:54:07;;;;;;;0.10;0.10;;;;;;;6.08;75.29;102684.19;5113917;28;20047;-81
2023/01/26 08:56:33;;;;;;;0.10;0.10;;;;;;;6.10;75.35;102690.38;5087699;28;20032;-82
2023/01/26 08:59:00;;;;;;;0.40;0.40;;;;;;;6.09;75.38;102680.72;5077982;28;20058;-82
2023/01/26 09:01:26;;;;;;;0.63;0.63;;;;;;;6.10;75.36;102686.84;5076461;28;20028;-81
2023/01/26 09:03:54;;;;;;;0.10;0.10;;;;;;;6.07;75.67;102684.13;5073880;28;20035;-82
2023/01/26 09:06:20;;;;;;;0.10;0.10;;;;;;;6.15;75.88;102691.38;5076234;28;20032;-81
2023/01/26 09:08:47;;;;;;;0.20;0.20;;;;;;;6.24;75.67;102689.88;5077943;28;20042;-80
2023/01/26 09:11:14;;;;;;;0.30;0.30;;;;;;;6.30;75.64;102695.31;5079826;28;20555;-79
2023/01/26 09:13:41;;;;;;;0.20;0.20;;;;;;;6.39;75.65;102695.56;5080719;28;20103;-80
2023/01/26 09:16:17;;;;;;;0.10;0.10;;;;;;;6.53;75.35;102692.41;5075800;28;20035;-82
2023/01/26 09:18:44;;;;;;;1.17;1.17;;;;;;;6.54;75.90;102700.34;5075436;28;20113;-81
2023/01/26 09:21:11;;;;;;;0.10;0.10;;;;;;;6.64;75.26;102697.09;5074947;28;20080;-83
2023/01/26 09:23:37;;;;;;;0.50;0.50;;;;;;;6.69;75.30;102709.50;5080389;28;20032;-80
2023/01/26 09:26:04;;;;;;;0.10;0.10;;;;;;;6.74;75.60;102706.16;5077344;28;20039;-81
2023/01/26 09:28:30;;;;;;;0.10;0.10;;;;;;;6.79;75.57;102706.25;5072922;28;20032;-81
2023/01/26 09:31:01;;;;;;;1.85;1.75;;;;;;;6.86;74.97;102707.31;5071412;28;20051;-81
2023/01/26 09:33:27;;;;;;;0.10;0.10;;;;;;;6.86;75.17;102713.47;5077280;28;20039;-80
2023/01/26 09:35:53;;;;;;;0.10;0.10;;;;;;;6.92;75.02;102713.63;5078221;28;20036;-82
2023/01/26 09:38:20;;;;;;;0.20;0.20;;;;;;;6.94;75.10;102713.66;5077217;28;20749;-82
2023/01/26 09:43:36;;;;;;;0.20;0.20;;;;;;;7.10;75.17;102707.94;5105637;27;1225494;-79
2023/01/26 09:49:22;;;;;;;0.10;0.10;;;;;;;7.17;74.47;102708.06;5071533;28;20403;-80
2023/01/26 09:51:57;;;;;;;0.45;0.45;;;;;;;7.17;74.96;102702.81;5066614;28;20029;-81
2023/01/26 09:57:01;;;;;;;0.10;0.10;;;;;;;7.25;74.67;102709.13;5107531;27;1180028;-81
2023/01/26 09:59:35;;;;;;;0.10;0.10;;;;;;;7.26;74.41;102709.19;5119128;27;20027;-81
2023/01/26 10:04:54;;;;;;;0.10;0.10;;;;;;;7.28;74.56;102712.72;5100116;27;1196354;-81
2023/01/26 10:07:21;;;;;;;0.47;0.47;;;;;;;7.27;74.00;102718.84;5125650;27;20114;-81
2023/01/26 10:09:50;;;;;;;0.20;0.20;;;;;;;7.27;74.26;102712.72;5127244;28;20043;-83
2023/01/26 10:12:35;;;;;;;0.10;0.10;;;;;;;7.36;74.02;102719.94;5129121;27;20051;-81
2023/01/26 10:17:43;;;;;;;0.10;0.10;;;;;;;7.29;74.10;102716.28;5106824;27;20498;-81
2023/01/26 10:23:00;;;;;;;0.10;0.10;;;;;;;7.40;74.19;102717.41;5093257;27;20387;-79
2023/01/26 10:25:34;;;;;;;0.10;0.10;;;;;;;7.39;74.34;102712.09;5076810;28;20029;-82
2023/01/26 10:28:19;;;;;;;0.20;0.20;;;;;;;7.37;74.44;102711.19;5085937;28;20014;-84
2023/01/26 10:30:47;;;;;;;0.10;0.10;;;;;;;7.39;74.21;102714.72;5101408;28;20042;-84
2023/01/26 10:35:53;;;;;;;0.20;0.20;;;;;;;7.42;74.76;102720.09;5114512;27;20382;-82
2023/01/26 10:43:41;;;;;;;0.40;0.40;;;;;;;7.65;74.85;102727.63;5059511;28;20053;-82
2023/01/26 10:46:24;;;;;;;0.10;0.10;;;;;;;7.78;74.41;102714.72;5050921;28;20441;-82
2023/01/26 10:48:56;;;;;;;36.95;2.28;;;;;;;7.80;74.65;102717.44;5049734;28;20033;-82
2023/01/26 10:51:28;;;;;;;0.15;0.15;;;;;;;7.86;74.70;102717.56;5051979;28;20091;-81
2023/01/26 10:54:19;;;;;;;0.20;0.20;;;;;;;7.95;74.70;102722.16;5049846;28;20021;-80
2023/01/26 10:56:50;;;;;;;0.20;0.20;;;;;;;7.99;74.17;102718.69;5043234;28;20025;-81
2023/01/26 10:59:44;;;;;;;0.10;0.10;;;;;;;8.14;74.21;102722.50;5049943;28;20663;-83
2023/01/26 11:07:48;;;;;;;0.10;0.10;;;;;;;8.39;74.32;102727.41;5112276;27;20147;-82
2023/01/26 11:13:20;;;;;;;0.20;0.20;;;;;;;8.65;72.93;102721.78;5150002;27;20338;-81
2023/01/26 11:15:59;;;;;;;0.45;0.45;;;;;;;8.71;73.08;102711.31;5130600;27;20039;-81
2023/01/26 11:18:52;;;;;;;0.10;0.10;;;;;;;8.84;72.83;102719.47;5129484;28;20050;-83
2023/01/26 11:21:30;;;;;;;0.10;0.10;;;;;;;8.85;71.78;102714.19;5140016;27;20019;-82
2023/01/26 11:24:24;;;;;;;0.10;0.10;;;;;;;9.02;71.92;102698.63;5128149;27;20104;-83
2023/01/26 11:30:07;;;;;;;0.10;0.10;;;;;;;9.17;70.80;102710.31;5100646;27;20390;-82
2023/01/26 11:33:00;;;;;;;0.20;0.20;;;;;;;9.24;68.90;102706.88;5102290;28;20052;-82
2023/01/26 11:41:24;;;;;;;0.10;0.10;;;;;;;9.28;67.31;102703.41;5055970;28;20135;-81
2023/01/26 11:44:05;;;;;;;0.20;0.20;;;;;;;9.37;68.40;102703.56;5048527;28;20033;-83
2023/01/26 11:49:56;;;;;;;6.40;1.80;;;;;;;9.58;69.00;102702.09;5110343;27;1174613;-82
2023/01/26 11:52:47;;;;;;;0.20;0.20;;;;;;;9.66;67.54;102694.28;5140456;28;20269;-82
2023/01/26 11:55:29;;;;;;;0.10;0.10;;;;;;;9.69;67.54;102684.63;5139366;27;20027;-82
2023/01/26 11:58:15;;;;;;;0.15;0.15;;;;;;;9.76;68.12;102687.31;5116298;28;20032;-83
2023/01/26 12:00:49;;;;;;;0.20;0.20;;;;;;;9.82;67.39;102690.97;5118488;28;20024;-81
2023/01/26 12:03:32;;;;;;;0.15;0.15;;;;;;;9.91;67.06;102690.19;5122458;28;20019;-83
2023/01/26 12:06:06;;;;;;;0.10;0.10;;;;;;;9.99;65.64;102692.91;5140091;28;20162;-82
2023/01/26 12:08:42;;;;;;;2.97;1.17;;;;;;;10.07;65.36;102687.72;5141053;28;20425;-87
2023/01/26 12:11:22;;;;;;;0.10;0.10;;;;;;;10.02;62.88;102682.38;5131807;28;20032;-84
2023/01/26 12:14:12;;;;;;;0.13;0.13;;;;;;;10.01;63.33;102680.59;5125756;27;20043;-83
2023/01/26 12:19:47;;;;;;;0.10;0.10;;;;;;;9.99;62.64;102677.94;5094239;27;1172084;-83
2023/01/26 12:22:29;;;;;;;0.20;0.20;;;;;;;10.02;63.22;102669.13;5109590;28;20290;-83
2023/01/26 12:25:19;;;;;;;8.73;4.65;;;;;;;10.10;63.49;102669.22;5105251;28;20122;-83
2023/01/26 12:30:56;;;;;;;0.13;0.13;;;;;;;10.11;63.78;102677.19;5110104;27;1184464;-81
2023/01/26 12:33:22;;;;;;;0.13;0.13;;;;;;;9.95;64.20;102673.44;5123686;28;20602;-81
2023/01/26 12:39:12;;;;;;;0.10;0.10;;;;;;;9.83;65.08;102653.03;5107678;27;1178240;-83
2023/01/26 12:42:13;;;;;;;0.20;0.20;;;;;;;9.63;64.91;102651.88;5132288;28;20062;-85
2023/01/26 12:47:25;;;;;;;0.10;0.10;;;;;;;9.72;66.22;102652.00;5099640;27;20405;-83
2023/01/26 12:52:41;;;;;;;0.20;0.20;;;;;;;10.04;64.32;102643.53;5060322;27;1399396;-82
2023/01/26 12:57:57;;;;;;;0.10;0.10;;;;;;;10.21;63.71;102651.69;4999287;28;20404;-81
2023/01/26 13:00:29;;;;;;;0.10;0.10;;;;;;;10.23;63.97;102638.44;5014638;28;20054;-80
2023/01/26 13:03:02;;;;;;;0.22;0.22;;;;;;;10.18;63.51;102641.94;5041343;28;20040;-81
2023/01/26 13:05:33;;;;;;;0.10;0.10;;;;;;;10.13;63.09;102640.09;4997293;28;20121;-84
2023/01/26 13:11:50;;;;;;;0.10;0.10;;;;;;;10.21;63.48;102635.78;5104371;27;1190898;-84
2023/01/26 13:14:23;;;;;;;;;;;;;;;10.32;63.58;102628.84;5120785;28;20046;-80
2023/01/26 13:16:49;;;;;;;0.20;0.20;;;;;;;10.22;62.98;102629.63;5097486;28;19912;-83
2023/01/26 13:19:50;;;;;;;0.10;0.10;;;;;;;10.35;62.62;102626.22;5102854;28;20443;-83
2023/01/26 13:25:19;;;;;;;0.17;0.17;;;;;;;10.29;62.40;102633.22;5103504;27;20384;-84
2023/01/26 13:27:56;;;;;;;0.10;0.10;;;;;;;10.25;61.02;102627.00;5087626;28;20036;-84
2023/01/26 13:33:21;;;;;;;0.10;0.10;;;;;;;10.04;61.13;102635.59;5101078;27;1213209;-86
2023/01/26 13:35:49;;;;;;;0.10;0.10;;;;;;;10.06;62.49;102638.28;5127415;28;20053;-84
2023/01/26 13:38:30;;;;;;;0.10;0.10;;;;;;;10.05;62.16;102637.38;5127349;27;20520;-82
2023/01/26 13:40:57;;;;;;;0.10;0.10;;;;;;;10.01;61.87;102633.81;5104734;28;20032;-83
2023/01/26 13:43:49;;;;;;;0.10;0.10;;;;;;;10.04;62.23;102631.22;5111905;28;20485;-83
2023/01/26 13:48:57;;;;;;;0.10;0.10;;;;;;;9.93;62.06;102638.16;5085200;27;21119;-82
2023/01/26 13:51:27;;;;;;;0.10;0.10;;;;;;;9.87;62.14;102624.84;5086610;28;20038;-83
2023/01/26 13:56:36;;;;;;;0.10;0.10;;;;;;;9.81;62.49;102638.88;5073687;27;20430;-84
2023/01/26 14:01:47;;;;;;;0.10;0.10;;;;;;;9.69;62.71;102641.38;5090585;27;1302001;-83
2023/01/26 14:04:17;;;;;;;0.10;0.10;;;;;;;9.74;62.83;102644.09;5103815;28;20401;-83